Time;durP1;ratioP1;P1;durP2;ratioP2;P2;SDS_P1;SDS_P2;PMS_P1;PMS_P2;Temp;Humidity;BMP_temperature;BMP_pressure;BME280_temperature;BME280_humidity;BME280_pressure;Samples;Min_cycle;Max_cycle;Signal;HPM_P1;HPM_P2
2022/06/08 11:25:00;;;;;;;1.80;1.70;;;21.90;99.90;;;;;;5078033;28;21107;-50
2022/06/08 11:27:31;;;;;;;2.10;2.00;;;21.90;99.90;;;;;;5082074;28;20193;-52
2022/06/08 11:30:00;;;;;;;2.13;2.03;;;22.00;99.90;;;;;;5073427;28;20197;-52
2022/06/08 11:33:09;;;;;;;2.40;2.22;;;22.10;99.90;;;;;;5085862;28;20296;-53
2022/06/08 11:36:18;;;;;;;1.80;1.70;;;22.20;99.90;;;;;;5056418;28;20247;-52
2022/06/08 11:39:00;;;;;;;2.05;1.95;;;22.40;99.90;;;;;;5078956;28;20220;-53
2022/06/08 11:41:36;;;;;;;1.70;1.67;;;22.50;99.90;;;;;;5075670;28;20192;-56
2022/06/08 11:44:16;;;;;;;1.38;1.38;;;22.70;99.90;;;;;;5076143;28;20212;-53
2022/06/08 11:46:46;;;;;;;1.50;1.50;;;22.80;99.90;;;;;;5075865;28;20216;-54
2022/06/08 11:49:40;;;;;;;2.08;1.98;;;22.80;99.90;;;;;;5081616;28;20200;-54
2022/06/08 11:52:31;;;;;;;2.65;2.45;;;23.00;99.90;;;;;;5071569;28;20592;-55
2022/06/08 11:55:04;;;;;;;2.30;2.20;;;23.10;99.90;;;;;;5073800;28;20221;-50
2022/06/08 11:57:38;;;;;;;2.45;2.25;;;23.20;99.90;;;;;;5082964;28;20735;-54
2022/06/08 12:00:15;;;;;;;2.42;2.33;;;23.30;99.90;;;;;;5082538;28;20220;-54
2022/06/08 12:02:43;;;;;;;2.20;2.10;;;23.40;99.90;;;;;;5067574;28;20209;-53
2022/06/08 12:05:10;;;;;;;2.90;2.70;;;23.50;99.90;;;;;;5067590;28;20205;-54
2022/06/08 12:07:48;;;;;;;2.42;2.30;;;23.60;99.90;;;;;;5064658;28;20669;-51
2022/06/08 12:10:20;;;;;;;2.28;2.17;;;23.70;99.90;;;;;;5067023;28;20602;-55
2022/06/08 12:12:49;;;;;;;2.03;1.92;;;23.70;99.90;;;;;;5068518;28;20201;-52
2022/06/08 12:15:43;;;;;;;3.67;2.45;;;23.80;99.90;;;;;;5068273;28;20521;-50
2022/06/08 12:18:24;;;;;;;3.20;3.00;;;23.80;99.90;;;;;;5073592;28;20939;-52
2022/06/08 12:21:07;;;;;;;2.55;2.45;;;23.80;99.40;;;;;;5067204;28;20298;-50
2022/06/08 12:23:40;;;;;;;2.53;2.42;;;23.80;99.10;;;;;;5071783;28;20246;-53
2022/06/08 12:26:20;;;;;;;2.10;2.00;;;23.80;98.90;;;;;;5075530;28;20651;-53
2022/06/08 12:29:00;;;;;;;1.67;1.67;;;23.90;98.90;;;;;;5077555;28;20242;-52
2022/06/08 12:31:31;;;;;;;2.42;2.25;;;23.90;98.80;;;;;;5067194;28;20297;-49
2022/06/08 12:34:21;;;;;;;2.25;2.15;;;24.00;98.10;;;;;;5069612;28;20277;-52
2022/06/08 12:36:48;;;;;;;2.70;2.50;;;24.40;98.00;;;;;;5063034;28;20300;-50
2022/06/08 12:39:18;;;;;;;3.80;2.47;;;24.10;97.60;;;;;;5052801;28;20229;-51
2022/06/08 12:41:47;;;;;;;2.10;2.00;;;24.10;97.50;;;;;;5045486;28;20206;-52
2022/06/08 12:44:19;;;;;;;2.38;2.17;;;24.20;97.30;;;;;;5056993;28;20210;-53
2022/06/08 12:46:53;;;;;;;2.75;2.53;;;24.30;97.00;;;;;;5051021;28;20721;-52
2022/06/08 12:49:23;;;;;;;2.20;2.10;;;24.30;96.60;;;;;;5055686;28;20705;-52
2022/06/08 12:51:55;;;;;;;2.40;2.30;;;24.40;96.50;;;;;;5048227;28;20198;-51
2022/06/08 12:54:27;;;;;;;2.28;2.08;;;24.50;96.30;;;;;;5057900;28;20272;-50
2022/06/08 12:56:56;;;;;;;2.00;1.90;;;24.50;96.10;;;;;;5064124;28;20194;-54
2022/06/08 12:59:24;;;;;;;2.42;2.30;;;24.40;96.10;;;;;;5043489;28;20212;-49
2022/06/08 13:01:54;;;;;;;2.00;1.90;;;24.40;96.10;;;;;;5055966;28;20625;-53
2022/06/08 13:04:24;;;;;;;2.85;2.22;;;24.40;96.10;;;;;;5049505;28;20214;-53
2022/06/08 13:06:53;;;;;;;1.90;1.70;;;24.50;96.00;;;;;;5043017;28;20276;-53
2022/06/08 13:09:21;;;;;;;2.28;2.10;;;24.60;95.90;;;;;;5048318;28;20239;-51
2022/06/08 13:11:54;;;;;;;2.75;2.55;;;24.70;95.50;;;;;;5063810;28;20515;-48
2022/06/08 13:14:21;;;;;;;2.35;2.20;;;24.80;95.20;;;;;;5059295;28;20196;-54
2022/06/08 13:16:50;;;;;;;2.53;2.33;;;24.70;95.00;;;;;;5058039;28;20564;-53
2022/06/08 13:19:19;;;;;;;3.42;2.20;;;24.70;94.90;;;;;;5061508;28;20251;-50
2022/06/08 13:21:48;;;;;;;2.10;2.00;;;24.70;94.50;;;;;;5059612;28;20615;-55
2022/06/08 13:24:15;;;;;;;1.80;1.70;;;24.60;94.30;;;;;;5064174;28;20253;-54
2022/06/08 13:26:43;;;;;;;2.83;1.83;;;24.60;94.80;;;;;;5065140;28;20204;-48
2022/06/08 13:29:12;;;;;;;1.77;1.67;;;24.60;94.30;;;;;;5055017;28;20625;-51
2022/06/08 13:31:39;;;;;;;1.80;1.70;;;24.70;93.70;;;;;;5068766;28;20224;-49
2022/06/08 13:34:13;;;;;;;1.77;1.67;;;24.70;93.50;;;;;;5047920;28;20198;-54
2022/06/08 13:36:43;;;;;;;1.70;1.60;;;24.80;93.40;;;;;;5058244;28;20281;-52
2022/06/08 13:39:24;;;;;;;7.85;2.08;;;24.90;93.30;;;;;;5048467;28;20213;-49
2022/06/08 13:41:55;;;;;;;2.00;1.90;;;24.90;93.10;;;;;;5047548;28;20758;-53
2022/06/08 13:44:26;;;;;;;2.03;1.92;;;25.00;92.90;;;;;;5046863;28;20289;-51
2022/06/08 13:46:57;;;;;;;1.80;1.70;;;24.90;92.80;;;;;;5055456;28;20186;-53
2022/06/08 13:49:26;;;;;;;2.05;1.95;;;24.90;92.80;;;;;;5051960;28;20210;-50
2022/06/08 13:51:54;;;;;;;1.73;1.63;;;25.00;92.30;;;;;;5054144;28;20637;-49
2022/06/08 13:54:27;;;;;;;2.03;1.92;;;25.00;92.00;;;;;;5054438;28;20217;-54
2022/06/08 13:56:56;;;;;;;2.10;2.00;;;25.00;91.70;;;;;;5046392;28;20650;-51
2022/06/08 13:59:24;;;;;;;2.63;1.90;;;25.00;91.20;;;;;;5055806;28;20712;-53
2022/06/08 14:01:54;;;;;;;2.00;1.90;;;25.00;91.10;;;;;;5059667;28;20311;-50
2022/06/08 14:04:23;;;;;;;1.65;1.52;;;24.90;91.20;;;;;;5055196;28;20315;-53
2022/06/08 14:15:07;;;;;;;5.70;3.58;;;24.70;91.50;;;;;;5056749;28;20646;-51
2022/06/08 14:17:34;;;;;;;3.90;3.58;;;24.70;92.30;;;;;;5062016;28;20201;-49
2022/06/08 14:20:01;;;;;;;3.63;3.35;;;24.60;92.60;;;;;;5066533;28;20221;-48
2022/06/08 14:22:34;;;;;;;5.38;3.38;;;24.60;93.00;;;;;;5062009;28;20316;-50
2022/06/08 14:25:05;;;;;;;3.10;2.90;;;24.60;93.20;;;;;;5064908;28;20554;-49
2022/06/08 14:27:34;;;;;;;3.63;3.33;;;24.60;93.40;;;;;;5066724;28;20342;-52
2022/06/08 14:30:03;;;;;;;3.50;3.30;;;24.70;93.70;;;;;;5057677;28;20595;-51
2022/06/08 14:32:39;;;;;;;3.58;3.28;;;24.70;93.80;;;;;;5052118;28;20201;-52
2022/06/08 14:35:09;;;;;;;3.80;3.50;;;24.70;93.90;;;;;;5047984;28;20225;-52
2022/06/08 14:37:37;;;;;;;3.38;3.08;;;24.80;94.00;;;;;;5046149;28;20275;-49
2022/06/08 14:40:10;;;;;;;3.80;3.35;;;24.70;93.90;;;;;;5034945;28;20662;-53
2022/06/08 14:42:38;;;;;;;3.38;2.88;;;24.80;94.10;;;;;;5046045;28;20198;-48
2022/06/08 14:45:06;;;;;;;3.35;3.05;;;24.70;94.00;;;;;;5048896;28;20283;-53
2022/06/08 14:47:34;;;;;;;3.60;3.30;;;24.70;94.00;;;;;;5053082;28;20225;-50
2022/06/08 14:50:05;;;;;;;3.65;3.45;;;24.70;94.00;;;;;;5050744;28;20198;-51
2022/06/08 14:52:32;;;;;;;3.50;3.20;;;24.60;94.10;;;;;;5054030;28;20190;-49
2022/06/08 14:55:00;;;;;;;4.78;2.92;;;24.60;94.00;;;;;;5052103;28;20193;-54
2022/06/08 14:57:31;;;;;;;3.30;3.10;;;24.60;93.90;;;;;;5053962;28;20558;-49
2022/06/08 15:00:01;;;;;;;3.08;2.92;;;24.50;93.90;;;;;;5054154;28;20655;-50
2022/06/08 15:02:30;;;;;;;3.40;3.10;;;24.50;93.80;;;;;;5054758;28;20201;-55
2022/06/08 15:04:58;;;;;;;3.45;3.25;;;24.50;93.80;;;;;;5055710;28;20209;-50
2022/06/08 15:07:26;;;;;;;3.85;3.55;;;24.50;93.80;;;;;;5055849;28;20204;-54
2022/06/08 15:09:54;;;;;;;3.47;2.70;;;24.40;93.80;;;;;;5051950;28;20258;-53
2022/06/08 15:12:26;;;;;;;3.08;2.88;;;24.40;93.80;;;;;;5053880;28;20202;-53
2022/06/08 15:14:56;;;;;;;2.90;2.70;;;24.40;93.80;;;;;;5047898;28;20194;-55
2022/06/08 15:17:27;;;;;;;3.38;2.92;;;24.40;93.80;;;;;;5048909;28;20725;-50
2022/06/08 15:19:57;;;;;;;4.10;3.72;;;24.40;93.90;;;;;;5053580;28;20200;-53
2022/06/08 15:22:26;;;;;;;3.58;3.28;;;24.30;93.80;;;;;;5050460;28;20247;-51
2022/06/08 15:24:54;;;;;;;3.88;3.55;;;24.30;93.80;;;;;;5046619;28;20214;-51
2022/06/08 15:27:25;;;;;;;3.63;3.22;;;24.30;93.70;;;;;;5047783;28;20285;-52
2022/06/08 15:29:53;;;;;;;3.15;2.95;;;24.30;93.70;;;;;;5042623;28;20186;-54
2022/06/08 15:32:22;;;;;;;3.15;2.90;;;24.20;93.70;;;;;;5050312;28;20255;-54
2022/06/08 15:34:52;;;;;;;3.33;2.65;;;24.30;93.80;;;;;;5046434;28;20630;-54
2022/06/08 15:37:22;;;;;;;2.90;2.70;;;24.30;93.80;;;;;;5047971;28;20675;-49
2022/06/08 15:39:50;;;;;;;3.30;3.00;;;24.20;93.70;;;;;;5047104;28;20232;-54
2022/06/08 15:42:18;;;;;;;3.00;2.80;;;24.20;93.60;;;;;;5048658;28;20654;-54
2022/06/08 15:44:47;;;;;;;2.97;2.78;;;24.20;93.80;;;;;;5047251;28;20240;-53
2022/06/08 15:47:18;;;;;;;2.90;2.72;;;24.20;93.50;;;;;;5047816;28;20647;-50
2022/06/08 15:49:49;;;;;;;2.78;2.58;;;24.20;93.50;;;;;;5047637;28;20198;-53
2022/06/08 15:52:21;;;;;;;2.95;2.75;;;24.20;93.50;;;;;;5048068;28;20228;-48
2022/06/08 15:54:55;;;;;;;2.50;2.40;;;24.20;93.50;;;;;;5046950;28;20292;-54
2022/06/08 15:57:22;;;;;;;2.38;2.28;;;24.20;93.60;;;;;;5045343;28;20638;-53
2022/06/08 15:59:55;;;;;;;2.70;2.30;;;24.20;93.70;;;;;;5045389;28;20265;-50
2022/06/08 16:02:22;;;;;;;2.85;2.13;;;24.10;93.70;;;;;;5047590;28;20508;-52
2022/06/08 16:04:49;;;;;;;2.17;2.08;;;24.10;93.80;;;;;;5047694;28;20685;-54
2022/06/08 16:07:17;;;;;;;2.55;2.40;;;24.10;93.80;;;;;;5050259;28;20190;-51
2022/06/08 16:09:44;;;;;;;2.90;2.70;;;24.10;93.70;;;;;;5047468;28;20245;-55
2022/06/08 16:12:12;;;;;;;2.10;2.00;;;24.10;93.50;;;;;;5065503;28;20205;-55
2022/06/08 16:14:41;;;;;;;2.30;2.10;;;24.10;93.40;;;;;;5049068;28;20194;-54
2022/06/08 16:17:14;;;;;;;2.50;2.40;;;24.10;93.40;;;;;;5051098;28;20236;-54
2022/06/08 16:19:42;;;;;;;3.08;2.65;;;24.10;93.30;;;;;;5051428;28;20277;-53
2022/06/08 16:22:10;;;;;;;2.33;2.22;;;24.10;93.20;;;;;;5050046;28;20225;-54
2022/06/08 16:24:37;;;;;;;2.70;2.45;;;24.10;93.30;;;;;;5049073;28;20404;-54
2022/06/08 16:27:05;;;;;;;3.05;2.70;;;24.10;93.30;;;;;;5049916;28;20375;-55
2022/06/08 16:29:33;;;;;;;2.78;2.58;;;24.10;93.30;;;;;;5050488;28;20200;-52
2022/06/08 16:32:00;;;;;;;2.50;2.40;;;24.10;93.30;;;;;;5045541;28;20195;-55
2022/06/08 16:34:30;;;;;;;2.92;2.67;;;24.10;93.30;;;;;;5055974;28;20275;-56
2022/06/08 16:36:58;;;;;;;2.67;2.47;;;24.10;93.30;;;;;;5051414;28;20220;-51
2022/06/08 16:39:26;;;;;;;2.22;2.08;;;24.10;93.30;;;;;;5054892;28;20743;-52
2022/06/08 16:41:54;;;;;;;2.20;2.10;;;24.20;93.40;;;;;;5050724;28;20205;-55
2022/06/08 16:44:21;;;;;;;1.90;1.80;;;24.20;93.40;;;;;;5054357;28;20201;-52
2022/06/08 16:46:49;;;;;;;1.88;1.77;;;24.20;93.40;;;;;;5055406;28;20373;-51
2022/06/08 16:49:16;;;;;;;2.10;2.00;;;24.20;93.50;;;;;;5054514;28;20352;-55
2022/06/08 16:51:44;;;;;;;1.90;1.80;;;24.20;93.50;;;;;;5056518;28;20202;-53
2022/06/08 16:54:11;;;;;;;2.08;1.98;;;24.20;93.50;;;;;;5055521;28;20201;-55
2022/06/08 17:02:12;;;;;;;1.85;1.75;;;24.10;93.40;;;;;;5053130;28;20236;-55
2022/06/08 17:04:40;;;;;;;1.95;1.63;;;24.10;93.50;;;;;;5055839;28;20217;-55
2022/06/08 17:07:11;;;;;;;1.85;1.63;;;24.00;93.70;;;;;;5059993;28;20274;-55
2022/06/08 17:09:39;;;;;;;1.60;1.50;;;24.00;94.00;;;;;;5054269;28;20202;-54
2022/06/08 17:12:08;;;;;;;1.40;1.40;;;24.00;94.40;;;;;;5059434;28;20665;-54
2022/06/08 17:14:35;;;;;;;1.50;1.50;;;24.00;94.70;;;;;;5059598;28;20298;-55
2022/06/08 17:17:03;;;;;;;1.40;1.40;;;24.00;94.90;;;;;;5063526;28;20201;-54
2022/06/08 17:19:31;;;;;;;2.00;1.90;;;24.00;95.20;;;;;;5051300;28;20197;-51
2022/06/08 17:21:58;;;;;;;1.40;1.40;;;23.90;95.40;;;;;;5058142;28;20205;-55
2022/06/08 17:24:26;;;;;;;1.63;1.52;;;23.90;95.70;;;;;;5058800;28;20237;-52
2022/06/08 17:26:54;;;;;;;1.70;1.63;;;23.80;95.80;;;;;;5065405;28;20280;-52
2022/06/08 17:29:21;;;;;;;1.40;1.40;;;23.80;96.00;;;;;;5050291;28;20638;-55
2022/06/08 17:31:48;;;;;;;1.80;1.48;;;23.70;96.10;;;;;;5061370;28;20205;-55
2022/06/08 17:34:15;;;;;;;1.45;1.45;;;23.70;96.30;;;;;;5055710;28;20535;-55
2022/06/08 17:36:42;;;;;;;1.38;1.38;;;23.70;96.40;;;;;;5050380;28;20221;-55
2022/06/08 17:39:12;;;;;;;1.70;1.60;;;23.60;96.50;;;;;;5049815;28;20271;-56
2022/06/08 17:41:41;;;;;;;1.50;1.50;;;23.60;96.70;;;;;;5049189;28;20259;-55
2022/06/08 17:44:08;;;;;;;1.80;1.70;;;23.60;96.80;;;;;;5053049;28;20717;-54
2022/06/08 17:46:36;;;;;;;1.80;1.70;;;23.60;96.90;;;;;;5057014;28;20649;-55
2022/06/08 17:49:04;;;;;;;1.52;1.50;;;23.50;97.00;;;;;;5056418;28;20217;-54
2022/06/08 17:51:31;;;;;;;1.90;1.80;;;23.50;97.20;;;;;;5050298;28;20737;-54
2022/06/08 17:53:58;;;;;;;1.88;1.77;;;23.50;97.30;;;;;;5050064;28;20189;-53
2022/06/08 17:56:25;;;;;;;1.65;1.65;;;23.50;97.50;;;;;;5048924;28;20524;-51
2022/06/08 17:58:54;;;;;;;1.83;1.73;;;23.50;97.60;;;;;;5055779;28;20273;-54
2022/06/08 18:01:21;;;;;;;1.40;1.40;;;23.50;97.70;;;;;;5049482;28;20220;-53
2022/06/08 18:03:48;;;;;;;1.90;1.80;;;23.40;97.80;;;;;;5049674;28;20225;-48
2022/06/08 18:06:15;;;;;;;1.50;1.50;;;23.40;97.90;;;;;;5049168;28;20300;-53
2022/06/08 18:08:43;;;;;;;1.90;1.80;;;23.30;98.00;;;;;;5048013;28;20221;-48
2022/06/08 18:13:56;;;;;;;1.70;1.65;;;23.30;98.20;;;;;;5044346;28;20190;-49
2022/06/08 18:16:23;;;;;;;1.75;1.65;;;23.30;98.30;;;;;;5047676;28;20210;-53
2022/06/08 18:18:50;;;;;;;1.77;1.67;;;23.20;98.40;;;;;;5049462;28;20236;-51
2022/06/08 18:21:17;;;;;;;1.60;1.60;;;23.20;98.50;;;;;;5063129;28;20193;-53
2022/06/08 18:23:44;;;;;;;1.30;1.30;;;23.20;98.60;;;;;;5065439;28;20366;-54
2022/06/08 18:26:17;;;;;;;1.75;1.65;;;23.20;98.60;;;;;;5064381;28;20718;-51
2022/06/08 18:28:44;;;;;;;2.03;1.92;;;23.20;98.70;;;;;;5064062;28;20189;-55
2022/06/08 18:31:14;;;;;;;1.90;1.80;;;23.20;98.80;;;;;;5046637;28;20218;-50
2022/06/08 18:33:41;;;;;;;2.20;2.10;;;23.20;98.90;;;;;;5050659;28;20349;-55
2022/06/08 18:36:09;;;;;;;1.60;1.60;;;23.10;99.10;;;;;;5035832;28;20217;-54
2022/06/08 18:38:37;;;;;;;1.50;1.48;;;23.10;99.10;;;;;;5051042;28;20208;-53
2022/06/08 18:41:07;;;;;;;1.80;1.70;;;23.00;99.10;;;;;;5048374;28;20229;-52
2022/06/08 18:43:37;;;;;;;1.67;1.58;;;23.10;99.20;;;;;;5054157;28;20616;-51
2022/06/08 18:46:06;;;;;;;1.60;1.50;;;23.00;99.30;;;;;;5051826;28;20229;-54
2022/06/08 18:48:36;;;;;;;1.63;1.52;;;23.10;99.40;;;;;;5063631;28;20670;-52
2022/06/08 18:51:04;;;;;;;1.88;1.77;;;23.10;99.50;;;;;;5058827;28;20201;-47
2022/06/08 18:53:31;;;;;;;1.58;1.48;;;23.10;99.60;;;;;;5051795;28;20213;-50
2022/06/08 18:55:59;;;;;;;1.83;1.73;;;23.00;99.60;;;;;;5050344;28;20212;-53
2022/06/08 18:58:28;;;;;;;1.80;1.70;;;23.00;99.70;;;;;;5061718;28;20506;-54
2022/06/08 19:00:55;;;;;;;1.70;1.60;;;23.00;99.70;;;;;;5063595;28;20280;-51
2022/06/08 19:03:23;;;;;;;1.67;1.58;;;23.00;99.80;;;;;;5037822;28;20212;-54
2022/06/08 19:05:51;;;;;;;1.33;1.33;;;23.00;99.80;;;;;;5039551;28;20210;-54
2022/06/08 19:08:18;;;;;;;1.70;1.60;;;23.00;99.90;;;;;;5051594;28;20220;-52
2022/06/08 19:10:45;;;;;;;1.60;1.50;;;22.90;99.90;;;;;;5046479;28;20206;-55
2022/06/08 19:13:12;;;;;;;1.40;1.30;;;22.90;99.90;;;;;;5057791;28;20194;-52
2022/06/08 19:15:39;;;;;;;1.63;1.50;;;22.90;99.90;;;;;;5047383;28;20496;-53
2022/06/08 19:20:57;;;;;;;1.40;1.40;;;22.90;99.90;;;;;;5046353;28;20186;-50
2022/06/08 19:23:26;;;;;;;1.70;1.60;;;22.90;99.90;;;;;;5045151;28;20308;-49
2022/06/08 19:25:55;;;;;;;1.45;1.35;;;22.90;99.90;;;;;;5042893;28;20676;-52
2022/06/08 19:28:23;;;;;;;1.50;1.50;;;22.80;99.90;;;;;;5047747;28;20201;-55
2022/06/08 19:30:52;;;;;;;1.50;1.40;;;22.80;99.90;;;;;;5045870;28;20663;-55
2022/06/08 19:33:23;;;;;;;4.60;2.70;;;22.80;99.90;;;;;;5052305;28;20202;-54
2022/06/08 19:35:50;;;;;;;3.28;2.97;;;22.80;99.90;;;;;;5047904;28;20196;-53
2022/06/08 19:38:20;;;;;;;3.45;3.15;;;22.70;99.90;;;;;;5047709;28;20200;-56
2022/06/08 19:40:47;;;;;;;3.20;2.67;;;22.70;99.90;;;;;;5042079;28;20570;-49
2022/06/08 19:43:16;;;;;;;2.90;2.50;;;22.80;99.90;;;;;;5047267;28;20206;-53
2022/06/08 19:45:43;;;;;;;3.83;2.20;;;22.70;99.90;;;;;;5044750;28;20635;-47
2022/06/08 19:48:11;;;;;;;1.90;1.80;;;22.70;99.90;;;;;;5051460;28;20324;-51
2022/06/08 19:50:40;;;;;;;2.42;1.73;;;22.70;99.90;;;;;;5065375;28;20247;-48
2022/06/08 19:53:08;;;;;;;2.10;2.00;;;22.70;99.90;;;;;;5050677;28;20215;-55
2022/06/08 19:55:39;;;;;;;2.00;1.90;;;22.70;99.90;;;;;;5046365;28;20634;-55
2022/06/08 19:58:06;;;;;;;6.05;4.88;;;22.70;99.90;;;;;;5051586;28;20226;-55
2022/06/08 20:00:35;;;;;;;5.85;4.65;;;22.60;99.90;;;;;;5050902;28;20202;-53
2022/06/08 20:03:02;;;;;;;5.10;4.35;;;22.60;99.90;;;;;;5051648;28;20216;-49
2022/06/08 20:05:29;;;;;;;4.03;3.70;;;22.50;99.90;;;;;;5055326;28;20213;-52
2022/06/08 20:07:57;;;;;;;3.67;3.17;;;22.50;99.90;;;;;;5059455;28;20197;-54
2022/06/08 20:10:25;;;;;;;2.78;2.58;;;22.50;99.90;;;;;;5062293;28;20197;-49
2022/06/08 20:12:55;;;;;;;3.15;2.95;;;22.30;99.90;;;;;;5056443;28;20570;-56
2022/06/08 20:15:24;;;;;;;5.22;3.88;;;22.40;99.90;;;;;;5044418;28;20562;-55
2022/06/08 20:17:51;;;;;;;3.58;3.30;;;22.40;99.90;;;;;;5049506;28;20307;-53
2022/06/08 20:20:19;;;;;;;3.92;3.60;;;22.30;99.90;;;;;;5060214;28;20205;-54
2022/06/08 20:22:46;;;;;;;2.92;2.72;;;22.30;99.90;;;;;;5064236;28;20278;-52
2022/06/08 20:25:17;;;;;;;4.20;3.00;;;22.30;99.90;;;;;;5058125;28;20546;-53
2022/06/08 20:27:44;;;;;;;2.55;2.35;;;22.30;99.90;;;;;;5065218;28;20193;-53
2022/06/08 20:30:15;;;;;;;2.22;2.08;;;22.20;99.90;;;;;;5059791;28;20798;-55
2022/06/08 20:32:42;;;;;;;3.08;2.20;;;22.20;99.90;;;;;;5046736;28;20198;-53
2022/06/08 20:35:12;;;;;;;2.10;2.00;;;22.10;99.90;;;;;;5050378;28;20695;-54
2022/06/08 20:37:39;;;;;;;1.90;1.80;;;22.10;99.90;;;;;;5049839;28;20214;-52
2022/06/08 20:40:08;;;;;;;2.17;2.08;;;22.10;99.90;;;;;;5056277;28;20197;-55
2022/06/08 20:42:35;;;;;;;1.95;1.85;;;22.10;99.90;;;;;;5046752;28;20198;-53
2022/06/08 20:45:03;;;;;;;1.83;1.73;;;22.10;99.90;;;;;;5053198;28;20197;-55
2022/06/08 20:47:32;;;;;;;1.63;1.60;;;22.00;99.90;;;;;;5059983;28;20310;-54
2022/06/08 20:49:59;;;;;;;1.70;1.60;;;22.00;99.90;;;;;;5045607;28;20194;-54
2022/06/08 20:52:26;;;;;;;1.90;1.80;;;22.00;99.90;;;;;;5051926;28;20294;-55
2022/06/08 20:54:54;;;;;;;1.67;1.67;;;22.00;99.90;;;;;;5049334;28;20234;-53
2022/06/08 20:57:21;;;;;;;1.90;1.70;;;22.00;99.90;;;;;;5045537;28;20197;-51
2022/06/08 20:59:48;;;;;;;1.60;1.50;;;22.00;99.90;;;;;;5055618;28;20232;-53
2022/06/08 21:02:18;;;;;;;1.65;1.55;;;22.00;99.90;;;;;;5047048;28;20665;-53
2022/06/08 21:04:47;;;;;;;1.63;1.52;;;22.00;99.90;;;;;;5050396;28;20232;-53
2022/06/08 21:07:14;;;;;;;2.67;1.67;;;22.00;99.90;;;;;;5050152;28;20301;-53
2022/06/08 21:09:41;;;;;;;1.60;1.58;;;22.00;99.90;;;;;;5047925;28;20206;-52
2022/06/08 21:12:13;;;;;;;1.80;1.70;;;22.00;99.90;;;;;;5045359;28;20198;-53
2022/06/08 21:14:40;;;;;;;1.85;1.75;;;22.00;99.90;;;;;;5044743;28;20194;-53
2022/06/08 21:17:07;;;;;;;1.73;1.63;;;21.90;99.90;;;;;;5048157;28;20197;-53
2022/06/08 21:19:34;;;;;;;1.42;1.42;;;21.90;99.90;;;;;;5045921;28;20669;-48
2022/06/08 21:22:03;;;;;;;2.13;1.85;;;21.80;99.90;;;;;;5048189;28;20271;-44
2022/06/08 21:24:31;;;;;;;1.92;1.83;;;21.80;99.90;;;;;;5050214;28;20230;-46
2022/06/08 21:26:58;;;;;;;1.60;1.60;;;21.80;99.90;;;;;;5058112;28;20213;-49
2022/06/08 21:29:25;;;;;;;1.88;1.77;;;21.80;99.90;;;;;;5058645;28;20250;-47
2022/06/08 21:31:52;;;;;;;1.88;1.77;;;21.70;99.90;;;;;;5061268;28;20204;-49
2022/06/08 21:34:19;;;;;;;1.90;1.80;;;21.80;99.90;;;;;;5050527;28;20194;-51
2022/06/08 21:36:46;;;;;;;2.20;2.10;;;21.70;99.90;;;;;;5042770;28;20757;-48
2022/06/08 21:39:14;;;;;;;2.20;2.10;;;21.60;99.90;;;;;;5047070;28;20206;-49
2022/06/08 21:41:46;;;;;;;1.98;1.88;;;21.70;99.90;;;;;;5041674;28;20270;-50
2022/06/08 21:44:14;;;;;;;2.28;2.17;;;21.60;99.90;;;;;;5048051;28;20198;-53
2022/06/08 21:46:41;;;;;;;2.25;2.15;;;21.60;99.90;;;;;;5049336;28;20303;-46
2022/06/08 21:49:10;;;;;;;2.50;2.40;;;21.60;99.90;;;;;;5041817;28;20190;-52
2022/06/08 21:51:37;;;;;;;2.40;2.20;;;21.60;99.90;;;;;;5062881;28;20197;-51
2022/06/08 21:54:05;;;;;;;2.55;2.35;;;21.60;99.90;;;;;;5058733;28;20258;-50
2022/06/08 21:56:35;;;;;;;2.53;2.42;;;21.50;99.90;;;;;;5044881;28;20196;-47
2022/06/08 21:59:03;;;;;;;2.75;2.55;;;21.50;99.90;;;;;;5050973;28;20592;-53
2022/06/08 22:01:31;;;;;;;2.80;2.60;;;21.50;99.90;;;;;;5045469;28;20209;-52
2022/06/08 22:03:58;;;;;;;2.55;2.38;;;21.50;99.90;;;;;;5045975;28;20557;-49
2022/06/08 22:06:26;;;;;;;2.30;2.20;;;21.40;99.90;;;;;;5049448;28;20209;-45
2022/06/08 22:08:53;;;;;;;2.30;2.20;;;21.50;99.90;;;;;;5048334;28;20205;-55
2022/06/08 22:11:22;;;;;;;2.90;2.70;;;21.50;99.90;;;;;;5055531;28;20206;-49
2022/06/08 22:13:51;;;;;;;2.55;2.40;;;21.40;99.90;;;;;;5050181;28;20827;-47
2022/06/08 22:16:22;;;;;;;2.80;2.50;;;21.50;99.90;;;;;;5045396;28;20218;-51
2022/06/08 22:18:49;;;;;;;2.53;2.38;;;21.40;99.90;;;;;;5050291;28;20292;-50
2022/06/08 22:21:19;;;;;;;2.45;2.25;;;21.40;99.90;;;;;;5046546;28;20272;-56
2022/06/08 22:23:46;;;;;;;2.55;2.35;;;21.40;99.90;;;;;;5042052;28;20260;-53
2022/06/08 22:26:18;;;;;;;2.28;2.17;;;21.40;99.90;;;;;;5057127;28;20548;-49
2022/06/08 22:28:45;;;;;;;3.17;2.92;;;21.40;99.90;;;;;;5051051;28;20675;-50
2022/06/08 22:31:14;;;;;;;2.67;2.50;;;21.40;99.90;;;;;;5045961;28;20281;-56
2022/06/08 22:33:42;;;;;;;3.13;2.80;;;21.40;99.90;;;;;;5043723;28;20222;-48
2022/06/08 22:36:09;;;;;;;2.33;2.22;;;21.30;99.90;;;;;;5037549;28;20204;-50
2022/06/08 22:38:37;;;;;;;2.40;2.30;;;21.30;99.90;;;;;;5049946;28;20825;-51
2022/06/08 22:41:04;;;;;;;2.60;2.40;;;21.30;99.90;;;;;;5048766;28;20289;-47
2022/06/08 22:43:31;;;;;;;2.55;2.35;;;21.30;99.90;;;;;;5050275;28;20225;-50
2022/06/08 22:45:59;;;;;;;2.60;2.45;;;21.30;99.90;;;;;;5050442;28;20280;-53
2022/06/08 22:48:28;;;;;;;2.10;2.00;;;21.30;99.90;;;;;;5051720;28;20708;-56
2022/06/08 22:50:55;;;;;;;2.38;2.17;;;21.30;99.90;;;;;;5053255;28;20286;-53
2022/06/08 22:53:24;;;;;;;1.98;1.88;;;21.30;99.90;;;;;;5053566;28;20225;-55
2022/06/08 22:55:52;;;;;;;2.00;1.90;;;21.30;99.90;;;;;;5051551;28;20205;-54
2022/06/08 22:58:20;;;;;;;2.10;2.00;;;21.30;99.90;;;;;;5055986;28;20221;-53
2022/06/08 23:00:49;;;;;;;2.80;2.42;;;21.30;99.90;;;;;;5060696;28;20291;-51
2022/06/08 23:03:18;;;;;;;2.47;2.13;;;21.30;99.90;;;;;;5051947;28;20543;-55
2022/06/08 23:05:47;;;;;;;2.75;2.55;;;21.30;99.90;;;;;;5058611;28;20210;-55
2022/06/08 23:08:14;;;;;;;2.47;2.30;;;21.30;99.90;;;;;;5061590;28;20210;-53
2022/06/08 23:10:42;;;;;;;2.20;2.00;;;21.20;99.90;;;;;;5059327;28;20658;-56
2022/06/08 23:13:09;;;;;;;2.03;1.90;;;21.20;99.90;;;;;;5063368;28;20285;-54
2022/06/08 23:20:27;;;;;;;2.15;2.05;;;21.20;99.90;;;;;;5068846;28;20560;-56
2022/06/08 23:21:15;;;;;;;3.42;2.58;;;21.20;99.90;;;;;;4975555;28;20280;-56
2022/06/08 23:23:42;;;;;;;2.15;2.05;;;21.10;99.90;;;;;;5050256;28;20269;-56
2022/06/08 23:26:09;;;;;;;3.00;2.80;;;21.10;99.90;;;;;;5048049;28;20189;-56
2022/06/08 23:28:36;;;;;;;2.53;2.42;;;21.10;99.90;;;;;;5051774;28;20201;-56
2022/06/08 23:31:03;;;;;;;2.83;2.63;;;21.10;99.90;;;;;;5054778;28;20193;-57
2022/06/08 23:33:30;;;;;;;3.15;2.20;;;21.10;99.90;;;;;;5051277;28;20222;-54
2022/06/08 23:35:57;;;;;;;2.92;2.53;;;21.10;99.90;;;;;;5051928;28;20280;-54
2022/06/08 23:38:26;;;;;;;2.42;2.33;;;21.00;99.90;;;;;;5049015;28;20221;-55
2022/06/08 23:40:54;;;;;;;3.38;2.90;;;21.00;99.90;;;;;;5034940;28;20213;-56
2022/06/08 23:43:22;;;;;;;2.40;2.30;;;21.00;99.90;;;;;;5048940;28;20299;-56
2022/06/08 23:45:48;;;;;;;2.72;2.53;;;21.00;99.90;;;;;;5048333;28;20201;-56
2022/06/08 23:48:15;;;;;;;2.88;2.67;;;21.00;99.90;;;;;;5048636;28;20214;-56
2022/06/08 23:53:29;;;;;;;2.38;2.28;;;21.00;99.90;;;;;;5048479;28;20289;-55
2022/06/08 23:55:56;;;;;;;2.65;2.45;;;21.00;99.90;;;;;;5038008;28;20202;-54
2022/06/08 23:58:23;;;;;;;2.55;2.35;;;20.90;99.90;;;;;;5055912;28;20664;-55
